createdAt,value
2022-07-29T00:02:51.351Z,16.69
2022-07-29T00:07:54.509Z,16.54
2022-07-29T00:12:57.740Z,16.41
2022-07-29T00:18:03.224Z,16.29
2022-07-29T00:23:06.106Z,16.18
2022-07-29T00:28:08.950Z,16.11
2022-07-29T00:33:11.724Z,16.07
2022-07-29T00:38:16.808Z,16.40
2022-07-29T00:43:19.600Z,18.96
2022-07-29T00:48:22.429Z,20.24
2022-07-29T00:53:26.776Z,19.11
2022-07-29T00:58:30.585Z,18.22
2022-07-29T01:03:33.417Z,17.73
2022-07-29T01:08:37.118Z,17.37
2022-07-29T01:13:40.089Z,17.06
2022-07-29T01:18:47.031Z,16.78
2022-07-29T01:24:27.485Z,16.51
2022-07-29T01:29:36.102Z,16.26
2022-07-29T01:35:00.104Z,16.09
2022-07-29T01:40:05.690Z,15.93
2022-07-29T01:45:29.976Z,15.77
2022-07-29T01:50:39.464Z,15.63
2022-07-29T01:55:45.704Z,15.51
2022-07-29T02:00:49.754Z,15.41
2022-07-29T02:05:54.076Z,15.40
2022-07-29T02:10:57.800Z,17.53
2022-07-29T02:16:02.259Z,19.34
2022-07-29T02:21:05.614Z,18.32
2022-07-29T02:26:19.208Z,17.31
2022-07-29T02:31:25.605Z,16.75
2022-07-29T02:36:29.802Z,16.35
2022-07-29T02:42:07.688Z,16.00
2022-07-29T02:47:10.431Z,15.72
2022-07-29T02:52:37.866Z,15.50
2022-07-29T02:57:55.512Z,15.27
2022-07-29T03:03:01.294Z,15.10
2022-07-29T03:08:07.011Z,14.99
2022-07-29T03:13:10.625Z,14.90
2022-07-29T03:18:14.112Z,15.01
2022-07-29T03:23:22.126Z,17.40
2022-07-29T03:28:26.967Z,19.19
2022-07-29T03:33:31.503Z,18.28
2022-07-29T03:38:36.659Z,17.30
2022-07-29T03:43:49.531Z,16.80
2022-07-29T03:48:57.659Z,16.43
2022-07-29T03:54:02.156Z,16.16
2022-07-29T03:59:07.212Z,15.98
2022-07-29T04:04:10.101Z,15.94
2022-07-29T04:09:13.123Z,16.10
2022-07-29T04:14:16.177Z,16.41
2022-07-29T04:19:19.247Z,16.52
2022-07-29T04:24:22.063Z,16.56
2022-07-29T04:29:24.876Z,18.00
2022-07-29T04:34:28.013Z,20.51
2022-07-29T04:39:31.302Z,21.15
2022-07-29T04:44:34.129Z,21.43
2022-07-29T04:49:42.497Z,23.09
2022-07-29T04:54:45.361Z,25.10
2022-07-29T04:59:48.178Z,26.22
2022-07-29T05:04:51.048Z,27.37
2022-07-29T05:09:54.248Z,28.38
2022-07-29T05:14:57.063Z,28.39
2022-07-29T05:19:59.853Z,28.05
2022-07-29T05:25:08.867Z,27.31
2022-07-29T05:30:12.387Z,26.45
2022-07-29T05:35:15.993Z,25.65
2022-07-29T05:40:19.013Z,24.98
2022-07-29T05:45:21.896Z,24.30
2022-07-29T05:50:25.693Z,23.69
2022-07-29T05:55:28.579Z,23.23
2022-07-29T06:00:31.501Z,22.83
2022-07-29T06:05:34.382Z,22.45
2022-07-29T06:10:37.286Z,22.15
2022-07-29T06:15:40.251Z,21.98
2022-07-29T06:20:43.268Z,21.85
2022-07-29T06:25:47.298Z,21.76
2022-07-29T06:30:50.140Z,21.83
2022-07-29T06:35:55.170Z,21.96
2022-07-29T06:41:01.080Z,22.09
2022-07-29T06:46:06.370Z,22.15
2022-07-29T06:51:10.305Z,22.19
2022-07-29T06:56:15.096Z,22.18
2022-07-29T07:01:18.084Z,22.19
2022-07-29T07:06:20.962Z,22.28
2022-07-29T07:11:23.815Z,22.41
2022-07-29T07:16:26.873Z,22.45
2022-07-29T07:21:31.072Z,22.45
2022-07-29T07:26:34.189Z,22.44
2022-07-29T07:31:38.199Z,22.44
2022-07-29T07:36:41.165Z,22.51
2022-07-29T07:41:47.202Z,22.58
2022-07-29T07:46:50.816Z,22.69
2022-07-29T07:51:53.719Z,22.75
2022-07-29T07:56:56.531Z,22.72
2022-07-29T08:01:59.518Z,22.73
2022-07-29T08:07:03.076Z,22.76
2022-07-29T08:12:07.022Z,22.75
2022-07-29T08:17:09.881Z,22.73
2022-07-29T08:22:12.707Z,22.72
2022-07-29T08:27:40.780Z,22.77
2022-07-29T08:32:55.294Z,22.79
2022-07-29T08:37:59.814Z,22.82
2022-07-29T08:43:09.405Z,22.80
2022-07-29T08:48:20.312Z,22.76
2022-07-29T08:53:25.266Z,22.77
2022-07-29T08:58:31.516Z,22.82
2022-07-29T09:03:37.212Z,22.90
2022-07-29T09:08:40.246Z,22.94
2022-07-29T09:13:43.156Z,22.97
2022-07-29T09:18:46.975Z,23.01
2022-07-29T09:24:22.312Z,23.05
2022-07-29T09:29:26.015Z,23.07
2022-07-29T09:34:32.840Z,23.14
2022-07-29T09:39:39.091Z,23.20
2022-07-29T09:44:50.406Z,23.26
2022-07-29T09:50:00.763Z,23.30
2022-07-29T09:55:13.634Z,23.36
2022-07-29T10:00:24.211Z,23.39
2022-07-29T10:05:36.242Z,23.44
2022-07-29T10:10:42.742Z,23.48
2022-07-29T10:15:47.521Z,23.51
2022-07-29T10:20:50.804Z,23.51
2022-07-29T10:25:54.086Z,23.47
2022-07-29T10:31:03.076Z,23.42
2022-07-29T10:36:18.638Z,23.36
2022-07-29T10:41:27.369Z,23.35
2022-07-29T10:46:40.216Z,23.49
2022-07-29T10:51:57.823Z,23.68
2022-07-29T10:57:53.101Z,23.85
2022-07-29T11:02:53.195Z,24.01
2022-07-29T11:08:19.907Z,24.06
2022-07-29T11:13:49.295Z,24.07
2022-07-29T11:19:24.732Z,24.10
2022-07-29T11:24:35.195Z,24.12
2022-07-29T11:29:53.661Z,24.10
2022-07-29T11:35:16.769Z,24.04
2022-07-29T11:40:21.404Z,23.93
2022-07-29T11:45:42.624Z,23.83
2022-07-29T11:50:51.690Z,23.79
2022-07-29T12:01:20.514Z,24.07
2022-07-29T12:06:23.360Z,24.25
2022-07-29T12:11:26.233Z,24.36
2022-07-29T12:16:38.797Z,24.44
2022-07-29T12:21:56.768Z,24.50
2022-07-29T12:27:00.969Z,24.52
2022-07-29T12:32:14.620Z,24.49
2022-07-29T12:37:40.524Z,24.50
2022-07-29T12:43:08.535Z,24.51
2022-07-29T12:48:11.956Z,24.50
2022-07-29T12:53:14.899Z,24.51
2022-07-29T12:58:34.233Z,24.49
2022-07-29T13:03:59.824Z,24.49
2022-07-29T13:09:10.976Z,24.50
2022-07-29T13:14:35.263Z,24.49
2022-07-29T13:19:42.173Z,24.45
2022-07-29T13:24:57.029Z,24.42
2022-07-29T13:30:01.884Z,24.38
2022-07-29T13:35:07.326Z,24.34
2022-07-29T13:40:13.515Z,24.28
2022-07-29T13:45:16.326Z,24.24
2022-07-29T13:50:19.109Z,24.22
2022-07-29T13:55:22.050Z,24.21
2022-07-29T14:00:28.797Z,24.21
2022-07-29T14:05:31.673Z,24.20
2022-07-29T14:10:34.585Z,24.17
2022-07-29T14:15:39.385Z,24.17
2022-07-29T14:20:42.455Z,24.19
2022-07-29T14:25:45.275Z,24.25
2022-07-29T14:30:51.657Z,24.34
2022-07-29T14:35:54.582Z,24.45
2022-07-29T14:41:04.151Z,24.53
2022-07-29T14:46:08.650Z,24.63
2022-07-29T14:51:11.679Z,24.68
2022-07-29T14:56:35.307Z,24.73
2022-07-29T15:01:37.400Z,24.77
2022-07-29T15:06:40.207Z,24.77
2022-07-29T15:11:43.055Z,24.76
2022-07-29T15:16:47.992Z,24.74
2022-07-29T15:21:51.352Z,24.65
2022-07-29T15:26:54.165Z,24.52
2022-07-29T15:31:57.337Z,24.48
2022-07-29T15:37:01.913Z,24.49
2022-07-29T15:42:05.241Z,24.50
2022-07-29T15:47:08.069Z,24.46
2022-07-29T15:52:11.130Z,24.41
2022-07-29T15:57:20.978Z,24.37
2022-07-29T16:02:24.102Z,24.35
2022-07-29T16:07:31.480Z,24.33
2022-07-29T16:12:35.751Z,24.28
2022-07-29T16:17:42.875Z,24.24
2022-07-29T16:22:47.062Z,24.17
2022-07-29T16:28:00.639Z,24.07
2022-07-29T16:33:08.486Z,23.95
2022-07-29T16:38:11.588Z,23.87
2022-07-29T16:43:15.406Z,23.79
2022-07-29T16:48:18.812Z,23.73
2022-07-29T16:53:22.256Z,23.67
2022-07-29T16:58:25.303Z,23.60
2022-07-29T17:03:28.320Z,23.51
2022-07-29T17:08:31.151Z,23.41
2022-07-29T17:13:33.967Z,23.33
2022-07-29T17:18:36.766Z,23.27
2022-07-29T17:23:39.626Z,23.20
2022-07-29T17:28:42.713Z,23.13
2022-07-29T17:33:45.608Z,23.06
2022-07-29T17:38:48.927Z,22.99
2022-07-29T17:43:52.542Z,22.92
2022-07-29T17:48:56.559Z,22.84
2022-07-29T17:54:01.903Z,22.75
2022-07-29T17:59:06.870Z,22.66
2022-07-29T18:04:09.858Z,22.58
2022-07-29T18:09:12.651Z,22.50
2022-07-29T18:14:15.509Z,22.43
2022-07-29T18:19:18.458Z,22.35
2022-07-29T18:25:10.086Z,22.25
2022-07-29T18:30:15.239Z,22.16
2022-07-29T18:35:21.372Z,22.06
2022-07-29T18:40:25.938Z,21.97
2022-07-29T18:45:29.088Z,21.86
2022-07-29T18:50:32.575Z,21.77
2022-07-29T18:55:35.693Z,21.69
2022-07-29T19:00:39.150Z,21.61
2022-07-29T19:05:42.249Z,21.55
2022-07-29T19:10:45.218Z,21.49
2022-07-29T19:15:48.162Z,21.41
2022-07-29T19:20:51.195Z,21.35
2022-07-29T19:25:54.261Z,21.29
2022-07-29T19:30:57.485Z,21.23
2022-07-29T19:36:02.235Z,21.18
2022-07-29T19:41:06.451Z,21.13
2022-07-29T19:46:09.547Z,21.08
2022-07-29T19:51:12.576Z,21.03
2022-07-29T19:56:15.384Z,21.00
2022-07-29T20:01:18.531Z,20.96
2022-07-29T20:06:22.794Z,20.94
2022-07-29T20:11:29.321Z,20.91
2022-07-29T20:16:35.778Z,20.90
2022-07-29T20:21:38.775Z,20.88
2022-07-29T20:26:41.659Z,20.86
2022-07-29T20:31:45.797Z,20.84
2022-07-29T20:36:56.599Z,20.80
2022-07-29T20:42:01.277Z,20.77
2022-07-29T20:47:04.314Z,20.73
2022-07-29T20:52:08.309Z,20.70
2022-07-29T20:57:11.369Z,20.66
2022-07-29T21:02:14.373Z,20.63
2022-07-29T21:07:17.276Z,20.60
2022-07-29T21:12:20.427Z,20.56
2022-07-29T21:17:23.913Z,20.53
2022-07-29T21:22:26.902Z,20.50
2022-07-29T21:27:48.411Z,20.47
2022-07-29T21:32:51.512Z,20.45
2022-07-29T21:37:55.010Z,20.42
2022-07-29T21:42:58.890Z,20.39
2022-07-29T21:48:02.633Z,20.37
2022-07-29T21:53:08.239Z,20.36
2022-07-29T21:58:17.652Z,20.35
2022-07-29T22:03:20.649Z,20.34
2022-07-29T22:08:23.516Z,20.33
2022-07-29T22:13:26.855Z,20.32
2022-07-29T22:18:29.851Z,20.31
2022-07-29T22:23:33.043Z,20.30
2022-07-29T22:28:36.097Z,20.30
2022-07-29T22:33:38.997Z,20.29
2022-07-29T22:38:42.063Z,20.30
2022-07-29T22:43:45.051Z,20.28
2022-07-29T22:48:47.930Z,20.24
2022-07-29T22:53:51.398Z,20.19
2022-07-29T22:58:57.126Z,20.11
2022-07-29T23:04:00.192Z,20.02
2022-07-29T23:09:04.154Z,19.94
2022-07-29T23:14:07.181Z,19.84
2022-07-29T23:19:12.727Z,19.74
2022-07-29T23:24:15.511Z,19.62
2022-07-29T23:29:18.583Z,19.53
2022-07-29T23:34:21.734Z,19.43
2022-07-29T23:39:24.748Z,19.43
2022-07-29T23:44:27.822Z,21.41
2022-07-29T23:49:30.889Z,23.23
2022-07-29T23:54:33.975Z,23.43
2022-07-29T23:59:40.080Z,22.02
